• Join FlightAware (Why Join?)
  • Login
  • US Flag 
04:17PM EDT


 

Airport Tracker/Info


-or-


 

Live Flight TrackerFlight Track Log ✈ SWA2236 ✈ 10-Jul-2013 ✈ KDAL - KABQ

Flight Track Log - Related Links

Times and Time Zones

All times are in EDT time to prevent confusion due to time zone crossing. See the SWA2236 flight status page for this flight to view local times or setup timezone preferences in your user account.

Time Position Orientation Groundspeed Altitude Reporting Facility
EDT Latitude Longitude Course Direction KTS MPH feet Rate Location/Type
07:13AM 32.8333 -96.8333 112° Southeast 165 190 1,300  Level Dallas / Fort Worth TRACON
07:14AM 32.8167 -96.7833 112° Southeast 221 254 2,900 2,220 Climbing Dallas / Fort Worth TRACON
07:15AM 32.7667 -96.7833 180° South 218 251 5,200 2,460 Climbing Dallas / Fort Worth TRACON
07:16AM 32.7500 -96.8667 257° West 271 312 7,600 2,700 Climbing Dallas / Fort Worth TRACON
07:17AM 32.7500 -96.9667 270° West 302 348 10,900 2,640 Climbing Dallas / Fort Worth TRACON
07:19AM 32.7894 -97.1983 282° West 341 392 16,400 2,400 Climbing Fort Worth Center
07:20AM 32.8042 -97.3097 279° West 370 426 18,600 2,340 Climbing Fort Worth Center
07:21AM 32.8250 -97.4506 280° West 394 453 21,100 2,220 Climbing Fort Worth Center
07:22AM 32.8417 -97.5767 279° West 405 466 23,100 2,100 Climbing Fort Worth Center
07:23AM 32.8642 -97.7153 281° West 421 484 25,300 1,980 Climbing Fort Worth Center
07:24AM 32.8658 -97.8561 271° West 432 497 27,100 1,740 Climbing Fort Worth Center
07:25AM 32.8633 -98.0044 269° West 438 504 28,800 1,500 Climbing Fort Worth Center
07:26AM 32.8939 -98.1508 284° West 448 516 30,200 1,500 Climbing Fort Worth Center
07:27AM 32.9472 -98.2872 295° West 448 516 31,800 1,680 Climbing Fort Worth Center
07:28AM 32.9983 -98.4289 293° West 458 527 33,600 1,740 Climbing Fort Worth Center
07:29AM 33.0514 -98.5708 294° West 442 509 35,300 1,560 Climbing Fort Worth Center
07:30AM 33.1022 -98.7103 294° West 442 509 36,800 1,320 Climbing Fort Worth Center
07:31AM 33.1528 -98.8475 294° West 447 514 38,000 600 Climbing Fort Worth Center
07:32AM 33.2014 -98.9850 293° West 447 514 38,000  Level Fort Worth Center
07:33AM 33.2497 -99.1225 293° West 447 514 38,000  Level Fort Worth Center
07:34AM 33.2997 -99.2600 294° West 447 514 38,000  Level Fort Worth Center
07:35AM 33.3500 -99.3956 294° West 447 514 38,000  Level Fort Worth Center
07:36AM 33.3978 -99.5333 293° West 447 514 38,000  Level Fort Worth Center
07:37AM 33.4456 -99.6714 293° West 452 520 38,000  Level Fort Worth Center
07:38AM 33.4950 -99.8122 293° West 457 526 38,000  Level Fort Worth Center
07:39AM 33.5403 -99.9506 291° West 457 526 38,000  Level Fort Worth Center
07:40AM 33.5875 -100.0889 292° West 452 520 38,000  Level Fort Worth Center
07:41AM 33.6367 -100.2253 293° West 452 520 38,000  Level Fort Worth Center
07:42AM 33.6836 -100.3664 292° West 452 520 38,000  Level Fort Worth Center
07:43AM 33.7303 -100.5028 292° West 452 520 38,000  Level Fort Worth Center
07:44AM 33.7769 -100.6369 293° West 452 520 38,000  Level Fort Worth Center
07:45AM 33.8233 -100.7786 292° West 452 520 38,000  Level Fort Worth Center
07:46AM 33.8697 -100.9156 292° West 452 520 38,000  Level Fort Worth Center
07:47AM 33.9139 -101.0525 291° West 452 520 38,000  Level Fort Worth Center
07:48AM 33.9597 -101.1897 292° West 447 514 38,000  Level Fort Worth Center
07:49AM 34.0056 -101.3269 292° West 447 514 38,000  Level Fort Worth Center
07:50AM 34.0533 -101.4644 293° West 442 509 38,000  Level Fort Worth Center
07:51AM 34.0953 -101.5917 292° West 442 509 38,000  Level Fort Worth Center
07:52AM 34.1422 -101.7394 291° West 437 503 38,000  Level Fort Worth Center
07:53AM 34.1875 -101.8747 292° West 442 509 38,000  Level Fort Worth Center
07:54AM 34.2147 -101.9631 290° West 446 513 38,000  Level Albuquerque Center
07:55AM 34.2592 -102.1028 291° West 446 513 38,000  Level Albuquerque Center
07:56AM 34.3044 -102.2397 292° West 441 507 38,000  Level Albuquerque Center
07:57AM 34.3492 -102.3808 291° West 444 511 38,000  Level Albuquerque Center
07:58AM 34.3942 -102.5200 291° West 445 512 38,000  Level Albuquerque Center
07:59AM 34.4394 -102.6611 291° West 446 513 38,000  Level Albuquerque Center
08:00AM 34.4833 -102.8017 291° West 445 512 38,000  Level Albuquerque Center
08:01AM 34.5064 -102.9403 281° West 453 521 38,000  Level Albuquerque Center
08:02AM 34.5256 -103.0878 279° West 446 513 38,000  Level Albuquerque Center
08:03AM 34.5431 -103.2369 278° West 443 510 38,000  Level Albuquerque Center
08:04AM 34.5611 -103.3864 278° West 442 509 38,000 -420 Level Albuquerque Center
08:05AM 34.5786 -103.5350 278° West 440 506 37,200 -900 Descending Albuquerque Center
08:06AM 34.6061 -103.6786 283° West 435 501 36,200 -600 Descending Albuquerque Center
08:07AM 34.6431 -103.8228 287° West 440 506 36,000 -120 Descending Albuquerque Center
08:08AM 34.6783 -103.9664 287° West 440 506 36,000  Level Albuquerque Center
08:09AM 34.7125 -104.1097 286° West 437 503 36,000 -120 Level Albuquerque Center
08:10AM 34.7469 -104.2528 286° West 435 501 35,800 -600 Descending Albuquerque Center
08:11AM 34.7814 -104.3969 286° West 436 502 34,800 -1,020 Descending Albuquerque Center
08:12AM 34.8161 -104.5411 286° West 438 504 33,800 -1,020 Descending Albuquerque Center
08:13AM 34.8422 -104.6900 282° West 442 509 32,800 -1,020 Descending Albuquerque Center
08:14AM 34.8561 -104.8397 276° West 440 506 31,800 -1,140 Descending Albuquerque Center
08:15AM 34.8697 -104.9900 276° West 441 507 30,600 -1,620 Descending Albuquerque Center
08:16AM 34.8831 -105.1325 277° West 427 491 28,600 -2,040 Descending Albuquerque Center
08:17AM 34.8958 -105.2711 276° West 413 475 26,600 -1,980 Descending Albuquerque Center
08:18AM 34.9078 -105.4044 276° West 399 459 24,700 -1,740 Descending Albuquerque Center
08:19AM 34.9172 -105.5125 276° West 388 447 23,100 -1,680 Descending Albuquerque Center
08:20AM 34.9275 -105.6394 276° West 378 435 21,300 -1,860 Descending Albuquerque Center
08:21AM 34.9367 -105.7633 275° West 368 423 19,400 -1,740 Descending Albuquerque Center
08:22AM 34.9475 -105.8903 276° West 366 421 17,800 -1,440 Descending Albuquerque Center
08:23AM 34.9553 -106.0108 275° West 361 415 16,500 -1,440 Descending Albuquerque Center
08:24AM 34.9578 -106.1222 272° West 338 389 14,900 -1,560 Descending Albuquerque Center
08:25AM 34.9586 -106.2322 271° West 327 376 13,400 -1,500 Descending Albuquerque Center
08:26AM 34.9597 -106.3394 271° West 319 367 11,900 -1,440 Descending Albuquerque Center
08:27AM 34.9581 -106.4456 269° West 316 364 10,600 -900 Descending Albuquerque Center
08:28AM 34.9542 -106.5436 267° West 305 351 10,100 -780 Descending Albuquerque Center
08:29AM 34.9089 -106.6053 228° Southwest 268 308 9,100 -900 Descending Albuquerque Center
08:30AM 34.9156 -106.6689 277° West 238 274 8,300 -960 Descending Albuquerque Center
08:31AM 34.9586 -106.7072 324° Northwest 221 254 7,200 -1,200 Descending Albuquerque Center
08:32AM 34.9997 -106.6561 46° Northeast 189 217 6,000 -960 Descending Albuquerque Center
08:33AM 35.0236 -106.6275 44° Northeast 171 197 5,300 -720 Descending Albuquerque Center
08:35AM 35.0333 -106.6000 90° East  Level FlightAware Approximate